Terminal Aerodrome Forecast
Issued by NWS Austin/San Antonio, TX

Current Version | Previous Version | Text Only | Print | Product List | Glossary Off
Versions: 1 2 3 4 5 6 7 8 9 10 11 12 13 14 15 16 17 18 19 20

000
FTUS44 KEWX 211700
TAFDRT
TAF
KDRT 211720Z 2118/2218 15007KT P6SM OVC009
     FM211900 15008KT P6SM BKN015
     FM212100 14009KT P6SM FEW040
     FM221100 12005KT P6SM BKN015
     FM221700 29005KT P6SM SCT250=

USA.gov is the U.S. government's official web portal to all federal, state and local government web resources and services.